KPIH/PIH METAR and TAF weather

Enter ICAO airport designator
Station Type Date Time Source
KPIH METAR 2022/12/05 14:53 UTC NOAA

KPIH 051453Z 21011KT 10SM FEW046 M01/M06 A2998 RMK AO2 SLP170 T10061056 53003


Station Type Date Time Source
KPIH Decoded METAR 2022/12/05 14:53 UTC NOAA

POCATELLO REGIONAL AIRPORT, ID, United States (KPIH) 42-55N 112-36W 1359M
Dec 05, 2022 - 09:53 AM EST / 2022.12.05 1453 UTC
Wind: from the SSW (210 degrees) at 13 MPH (11 KT):0
Visibility: 10 mile(s):0
Sky conditions: mostly clear
Temperature: 30.9 F (-0.6 C)
Windchill: 21 F (-6 C):1
Dew Point: 21.9 F (-5.6 C)
Relative Humidity: 68%
Pressure (altimeter): 29.98 in. Hg (1015 hPa)
Pressure tendency: 0.01 inches (0.3 hPa) higher than three hours ago
ob: KPIH 051453Z 21011KT 10SM FEW046 M01/M06 A2998 RMK AO2 SLP170 T10061056 53003
cycle: 15

Station Type Date Time Source
KPIH TAF 2022/12/05 15:57 UTC NOAA

TAF
AMD KPIH 051454Z 0515/0612 21010G20KT P6SM SCT045
FM051800 23011KT P6SM OVC015
FM052300 19008KT P6SM SCT015
FM060700 22007KT P6SM OVC010

Example: see airport list